sensor_id;sensor_type;location;lat;lon;timestamp;temperature;humidity
73137;DHT22;67767;45.636;11.756;2023-08-20T00:01:25;28.20;76.40
73137;DHT22;67767;45.636;11.756;2023-08-20T00:03:51;28.10;76.20
73137;DHT22;67767;45.636;11.756;2023-08-20T00:06:18;28.10;76.30
73137;DHT22;67767;45.636;11.756;2023-08-20T00:08:45;28.10;76.40
73137;DHT22;67767;45.636;11.756;2023-08-20T00:11:12;28.10;76.30
73137;DHT22;67767;45.636;11.756;2023-08-20T00:13:38;28.10;76.40
73137;DHT22;67767;45.636;11.756;2023-08-20T00:16:04;28.10;76.40
73137;DHT22;67767;45.636;11.756;2023-08-20T00:18:30;28.20;76.40
73137;DHT22;67767;45.636;11.756;2023-08-20T00:20:56;28.10;76.50
73137;DHT22;67767;45.636;11.756;2023-08-20T00:23:22;28.10;76.30
73137;DHT22;67767;45.636;11.756;2023-08-20T00:25:48;28.00;76.50
73137;DHT22;67767;45.636;11.756;2023-08-20T00:28:14;28.00;76.60
73137;DHT22;67767;45.636;11.756;2023-08-20T00:30:40;28.00;76.60
73137;DHT22;67767;45.636;11.756;2023-08-20T00:33:05;28.00;76.50
73137;DHT22;67767;45.636;11.756;2023-08-20T00:35:32;28.00;76.40
73137;DHT22;67767;45.636;11.756;2023-08-20T00:37:58;28.00;76.50
73137;DHT22;67767;45.636;11.756;2023-08-20T00:40:24;27.90;76.60
73137;DHT22;67767;45.636;11.756;2023-08-20T00:42:49;27.90;76.60
73137;DHT22;67767;45.636;11.756;2023-08-20T00:45:16;27.90;76.60
73137;DHT22;67767;45.636;11.756;2023-08-20T00:47:44;27.90;76.80
73137;DHT22;67767;45.636;11.756;2023-08-20T00:50:11;27.80;77.00
73137;DHT22;67767;45.636;11.756;2023-08-20T00:52:37;27.80;76.90
73137;DHT22;67767;45.636;11.756;2023-08-20T00:55:09;27.80;77.00
73137;DHT22;67767;45.636;11.756;2023-08-20T00:57:37;27.80;76.70
73137;DHT22;67767;45.636;11.756;2023-08-20T01:00:03;27.80;76.70
73137;DHT22;67767;45.636;11.756;2023-08-20T01:02:33;27.80;76.80
73137;DHT22;67767;45.636;11.756;2023-08-20T01:05:00;27.80;77.00
73137;DHT22;67767;45.636;11.756;2023-08-20T01:10:11;27.70;76.80
73137;DHT22;67767;45.636;11.756;2023-08-20T01:12:40;27.80;76.50
73137;DHT22;67767;45.636;11.756;2023-08-20T01:15:06;27.80;76.30
73137;DHT22;67767;45.636;11.756;2023-08-20T01:17:39;27.70;76.60
73137;DHT22;67767;45.636;11.756;2023-08-20T01:20:05;27.70;76.50
73137;DHT22;67767;45.636;11.756;2023-08-20T01:22:50;27.70;76.20
73137;DHT22;67767;45.636;11.756;2023-08-20T01:30:46;27.90;75.90
73137;DHT22;67767;45.636;11.756;2023-08-20T01:33:13;27.70;76.00
73137;DHT22;67767;45.636;11.756;2023-08-20T01:35:39;27.40;76.70
73137;DHT22;67767;45.636;11.756;2023-08-20T01:38:04;27.30;76.50
73137;DHT22;67767;45.636;11.756;2023-08-20T01:40:30;27.30;76.90
73137;DHT22;67767;45.636;11.756;2023-08-20T01:42:57;27.20;77.10
73137;DHT22;67767;45.636;11.756;2023-08-20T01:45:23;27.20;77.20
73137;DHT22;67767;45.636;11.756;2023-08-20T01:47:49;27.10;77.40
73137;DHT22;67767;45.636;11.756;2023-08-20T01:50:14;27.20;77.40
73137;DHT22;67767;45.636;11.756;2023-08-20T01:52:40;27.10;77.30
73137;DHT22;67767;45.636;11.756;2023-08-20T01:55:06;27.10;77.30
73137;DHT22;67767;45.636;11.756;2023-08-20T01:57:32;27.10;77.30
73137;DHT22;67767;45.636;11.756;2023-08-20T01:59:58;27.10;77.30
73137;DHT22;67767;45.636;11.756;2023-08-20T02:02:24;27.20;77.20
73137;DHT22;67767;45.636;11.756;2023-08-20T02:04:50;27.20;77.20
73137;DHT22;67767;45.636;11.756;2023-08-20T02:07:15;27.20;77.00
73137;DHT22;67767;45.636;11.756;2023-08-20T02:09:41;27.30;77.20
73137;DHT22;67767;45.636;11.756;2023-08-20T02:12:07;27.30;77.10
73137;DHT22;67767;45.636;11.756;2023-08-20T02:14:34;27.20;76.90
73137;DHT22;67767;45.636;11.756;2023-08-20T02:17:01;27.30;76.60
73137;DHT22;67767;45.636;11.756;2023-08-20T02:19:27;27.30;76.50
73137;DHT22;67767;45.636;11.756;2023-08-20T02:21:53;27.30;76.10
73137;DHT22;67767;45.636;11.756;2023-08-20T02:24:19;27.30;76.20
73137;DHT22;67767;45.636;11.756;2023-08-20T02:26:45;27.40;76.20
73137;DHT22;67767;45.636;11.756;2023-08-20T02:29:10;27.30;76.00
73137;DHT22;67767;45.636;11.756;2023-08-20T02:31:36;27.20;76.10
73137;DHT22;67767;45.636;11.756;2023-08-20T02:34:02;27.20;76.10
73137;DHT22;67767;45.636;11.756;2023-08-20T02:36:27;27.20;76.00
73137;DHT22;67767;45.636;11.756;2023-08-20T02:38:53;27.20;75.80
73137;DHT22;67767;45.636;11.756;2023-08-20T02:41:19;27.10;76.10
73137;DHT22;67767;45.636;11.756;2023-08-20T02:43:45;27.00;75.90
73137;DHT22;67767;45.636;11.756;2023-08-20T02:46:10;27.10;76.00
73137;DHT22;67767;45.636;11.756;2023-08-20T02:48:36;27.00;76.00
73137;DHT22;67767;45.636;11.756;2023-08-20T02:51:02;27.00;76.00
73137;DHT22;67767;45.636;11.756;2023-08-20T02:53:28;27.10;75.90
73137;DHT22;67767;45.636;11.756;2023-08-20T02:55:54;27.10;75.60
73137;DHT22;67767;45.636;11.756;2023-08-20T02:58:20;27.10;75.60
73137;DHT22;67767;45.636;11.756;2023-08-20T03:00:45;27.00;75.60
73137;DHT22;67767;45.636;11.756;2023-08-20T03:03:11;27.10;75.50
73137;DHT22;67767;45.636;11.756;2023-08-20T03:05:37;27.10;75.50
73137;DHT22;67767;45.636;11.756;2023-08-20T03:08:03;27.20;75.40
73137;DHT22;67767;45.636;11.756;2023-08-20T03:10:29;27.20;75.20
73137;DHT22;67767;45.636;11.756;2023-08-20T03:12:56;27.30;75.10
73137;DHT22;67767;45.636;11.756;2023-08-20T03:15:22;27.40;75.00
73137;DHT22;67767;45.636;11.756;2023-08-20T03:17:47;27.30;74.90
73137;DHT22;67767;45.636;11.756;2023-08-20T03:20:13;27.40;75.00
73137;DHT22;67767;45.636;11.756;2023-08-20T03:22:39;27.20;75.30
73137;DHT22;67767;45.636;11.756;2023-08-20T03:25:05;27.20;75.50
73137;DHT22;67767;45.636;11.756;2023-08-20T03:27:31;27.10;75.50
73137;DHT22;67767;45.636;11.756;2023-08-20T03:29:57;27.00;75.70
73137;DHT22;67767;45.636;11.756;2023-08-20T03:32:24;27.00;75.80
73137;DHT22;67767;45.636;11.756;2023-08-20T03:34:50;27.00;76.00
73137;DHT22;67767;45.636;11.756;2023-08-20T03:37:16;26.90;75.90
73137;DHT22;67767;45.636;11.756;2023-08-20T03:39:41;26.90;76.00
73137;DHT22;67767;45.636;11.756;2023-08-20T03:42:07;26.90;76.10
73137;DHT22;67767;45.636;11.756;2023-08-20T03:44:33;26.90;76.40
73137;DHT22;67767;45.636;11.756;2023-08-20T03:46:58;26.80;76.50
73137;DHT22;67767;45.636;11.756;2023-08-20T03:49:24;26.70;76.70
73137;DHT22;67767;45.636;11.756;2023-08-20T03:51:50;26.70;76.80
73137;DHT22;67767;45.636;11.756;2023-08-20T03:54:15;26.50;77.00
73137;DHT22;67767;45.636;11.756;2023-08-20T03:56:41;26.60;77.00
73137;DHT22;67767;45.636;11.756;2023-08-20T03:59:07;26.70;76.90
73137;DHT22;67767;45.636;11.756;2023-08-20T04:01:33;26.70;76.90
73137;DHT22;67767;45.636;11.756;2023-08-20T04:03:58;26.60;77.00
73137;DHT22;67767;45.636;11.756;2023-08-20T04:06:24;26.40;77.40
73137;DHT22;67767;45.636;11.756;2023-08-20T04:08:49;26.40;77.60
73137;DHT22;67767;45.636;11.756;2023-08-20T04:11:15;26.30;77.80
73137;DHT22;67767;45.636;11.756;2023-08-20T04:13:41;26.30;77.60
73137;DHT22;67767;45.636;11.756;2023-08-20T04:16:09;26.20;77.90
73137;DHT22;67767;45.636;11.756;2023-08-20T04:18:35;26.10;78.10
73137;DHT22;67767;45.636;11.756;2023-08-20T04:21:01;26.10;78.00
73137;DHT22;67767;45.636;11.756;2023-08-20T04:23:26;26.30;78.00
73137;DHT22;67767;45.636;11.756;2023-08-20T04:25:52;26.30;77.80
73137;DHT22;67767;45.636;11.756;2023-08-20T04:28:18;26.30;77.80
73137;DHT22;67767;45.636;11.756;2023-08-20T04:30:44;26.30;77.80
73137;DHT22;67767;45.636;11.756;2023-08-20T04:33:10;26.30;77.90
73137;DHT22;67767;45.636;11.756;2023-08-20T04:35:35;26.40;77.60
73137;DHT22;67767;45.636;11.756;2023-08-20T04:38:02;26.40;77.70
73137;DHT22;67767;45.636;11.756;2023-08-20T04:40:28;26.40;77.40
73137;DHT22;67767;45.636;11.756;2023-08-20T04:42:53;26.50;77.50
73137;DHT22;67767;45.636;11.756;2023-08-20T04:45:19;26.40;77.90
73137;DHT22;67767;45.636;11.756;2023-08-20T04:47:45;26.40;77.80
73137;DHT22;67767;45.636;11.756;2023-08-20T04:50:12;26.40;78.00
73137;DHT22;67767;45.636;11.756;2023-08-20T04:52:39;26.50;77.70
73137;DHT22;67767;45.636;11.756;2023-08-20T04:55:05;26.40;77.80
73137;DHT22;67767;45.636;11.756;2023-08-20T04:57:31;26.30;77.90
73137;DHT22;67767;45.636;11.756;2023-08-20T04:59:57;26.40;77.70
73137;DHT22;67767;45.636;11.756;2023-08-20T05:02:23;26.40;77.80
73137;DHT22;67767;45.636;11.756;2023-08-20T05:04:49;26.50;77.80
73137;DHT22;67767;45.636;11.756;2023-08-20T05:07:14;26.70;77.70
73137;DHT22;67767;45.636;11.756;2023-08-20T05:09:40;26.70;77.50
73137;DHT22;67767;45.636;11.756;2023-08-20T05:12:06;26.80;77.40
73137;DHT22;67767;45.636;11.756;2023-08-20T05:14:32;26.80;77.20
73137;DHT22;67767;45.636;11.756;2023-08-20T05:16:58;26.80;77.40
73137;DHT22;67767;45.636;11.756;2023-08-20T05:19:23;26.80;77.20
73137;DHT22;67767;45.636;11.756;2023-08-20T05:21:49;26.90;77.20
73137;DHT22;67767;45.636;11.756;2023-08-20T05:24:15;26.90;77.40
73137;DHT22;67767;45.636;11.756;2023-08-20T05:26:41;26.80;77.30
73137;DHT22;67767;45.636;11.756;2023-08-20T05:29:06;26.70;77.30
73137;DHT22;67767;45.636;11.756;2023-08-20T05:31:32;26.80;77.30
73137;DHT22;67767;45.636;11.756;2023-08-20T05:33:58;26.90;77.30
73137;DHT22;67767;45.636;11.756;2023-08-20T05:36:24;26.90;77.30
73137;DHT22;67767;45.636;11.756;2023-08-20T05:38:49;26.90;77.10
73137;DHT22;67767;45.636;11.756;2023-08-20T05:41:15;26.90;77.00
73137;DHT22;67767;45.636;11.756;2023-08-20T05:43:41;27.10;77.10
73137;DHT22;67767;45.636;11.756;2023-08-20T05:46:06;27.00;77.10
73137;DHT22;67767;45.636;11.756;2023-08-20T05:48:32;27.10;77.10
73137;DHT22;67767;45.636;11.756;2023-08-20T05:50:58;27.20;77.20
73137;DHT22;67767;45.636;11.756;2023-08-20T05:53:23;27.20;76.90
73137;DHT22;67767;45.636;11.756;2023-08-20T05:55:49;27.20;77.00
73137;DHT22;67767;45.636;11.756;2023-08-20T05:58:15;27.40;76.90
73137;DHT22;67767;45.636;11.756;2023-08-20T06:00:40;27.60;76.70
73137;DHT22;67767;45.636;11.756;2023-08-20T06:03:07;27.80;76.40
73137;DHT22;67767;45.636;11.756;2023-08-20T06:05:33;27.90;76.40
73137;DHT22;67767;45.636;11.756;2023-08-20T06:07:59;28.10;76.20
73137;DHT22;67767;45.636;11.756;2023-08-20T06:10:25;28.30;75.90
73137;DHT22;67767;45.636;11.756;2023-08-20T06:12:50;28.40;75.80
73137;DHT22;67767;45.636;11.756;2023-08-20T06:15:16;28.60;75.60
73137;DHT22;67767;45.636;11.756;2023-08-20T06:17:42;28.70;75.30
73137;DHT22;67767;45.636;11.756;2023-08-20T06:20:08;28.80;75.10
73137;DHT22;67767;45.636;11.756;2023-08-20T06:22:34;28.90;75.00
73137;DHT22;67767;45.636;11.756;2023-08-20T06:25:00;28.90;74.90
73137;DHT22;67767;45.636;11.756;2023-08-20T06:27:26;29.00;74.80
73137;DHT22;67767;45.636;11.756;2023-08-20T06:29:51;29.00;75.20
73137;DHT22;67767;45.636;11.756;2023-08-20T06:32:17;29.20;74.60
73137;DHT22;67767;45.636;11.756;2023-08-20T06:34:43;29.30;74.30
73137;DHT22;67767;45.636;11.756;2023-08-20T06:37:08;29.70;73.70
73137;DHT22;67767;45.636;11.756;2023-08-20T06:39:34;29.90;73.80
73137;DHT22;67767;45.636;11.756;2023-08-20T06:42:00;29.80;73.60
73137;DHT22;67767;45.636;11.756;2023-08-20T06:44:26;30.20;73.30
73137;DHT22;67767;45.636;11.756;2023-08-20T06:46:51;30.30;72.50
73137;DHT22;67767;45.636;11.756;2023-08-20T06:49:17;30.20;72.70
73137;DHT22;67767;45.636;11.756;2023-08-20T06:51:42;30.40;72.90
73137;DHT22;67767;45.636;11.756;2023-08-20T06:54:08;30.40;72.40
73137;DHT22;67767;45.636;11.756;2023-08-20T06:56:34;30.50;72.20
73137;DHT22;67767;45.636;11.756;2023-08-20T06:59:00;30.80;71.20
73137;DHT22;67767;45.636;11.756;2023-08-20T07:01:28;30.70;71.20
73137;DHT22;67767;45.636;11.756;2023-08-20T07:03:54;30.80;71.20
73137;DHT22;67767;45.636;11.756;2023-08-20T07:06:20;30.80;71.20
73137;DHT22;67767;45.636;11.756;2023-08-20T07:08:46;30.90;70.90
73137;DHT22;67767;45.636;11.756;2023-08-20T07:11:11;31.00;70.30
73137;DHT22;67767;45.636;11.756;2023-08-20T07:13:37;30.80;69.20
73137;DHT22;67767;45.636;11.756;2023-08-20T07:16:03;30.90;68.70
73137;DHT22;67767;45.636;11.756;2023-08-20T07:18:29;30.90;68.60
73137;DHT22;67767;45.636;11.756;2023-08-20T07:20:55;31.10;68.50
73137;DHT22;67767;45.636;11.756;2023-08-20T07:23:21;31.30;67.30
73137;DHT22;67767;45.636;11.756;2023-08-20T07:25:47;31.50;67.70
73137;DHT22;67767;45.636;11.756;2023-08-20T07:28:14;31.40;67.00
73137;DHT22;67767;45.636;11.756;2023-08-20T07:30:40;31.60;66.50
73137;DHT22;67767;45.636;11.756;2023-08-20T07:33:06;31.80;66.00
73137;DHT22;67767;45.636;11.756;2023-08-20T07:35:33;31.90;64.20
73137;DHT22;67767;45.636;11.756;2023-08-20T07:37:58;31.90;64.60
73137;DHT22;67767;45.636;11.756;2023-08-20T07:40:24;31.60;66.50
73137;DHT22;67767;45.636;11.756;2023-08-20T07:42:50;31.70;65.70
73137;DHT22;67767;45.636;11.756;2023-08-20T07:45:16;31.90;63.70
73137;DHT22;67767;45.636;11.756;2023-08-20T07:47:42;32.00;63.10
73137;DHT22;67767;45.636;11.756;2023-08-20T07:50:08;32.10;62.80
73137;DHT22;67767;45.636;11.756;2023-08-20T07:52:34;32.10;63.10
73137;DHT22;67767;45.636;11.756;2023-08-20T07:54:59;32.10;63.10
73137;DHT22;67767;45.636;11.756;2023-08-20T07:57:25;32.10;62.90
73137;DHT22;67767;45.636;11.756;2023-08-20T07:59:51;32.40;62.70
73137;DHT22;67767;45.636;11.756;2023-08-20T08:02:17;32.60;62.40
73137;DHT22;67767;45.636;11.756;2023-08-20T08:04:43;32.60;62.00
73137;DHT22;67767;45.636;11.756;2023-08-20T08:07:10;32.80;62.70
73137;DHT22;67767;45.636;11.756;2023-08-20T08:09:35;32.90;61.70
73137;DHT22;67767;45.636;11.756;2023-08-20T08:12:01;32.90;62.10
73137;DHT22;67767;45.636;11.756;2023-08-20T08:14:28;33.00;61.40
73137;DHT22;67767;45.636;11.756;2023-08-20T08:16:54;33.00;61.60
73137;DHT22;67767;45.636;11.756;2023-08-20T08:19:19;32.80;61.80
73137;DHT22;67767;45.636;11.756;2023-08-20T08:21:46;33.10;61.80
73137;DHT22;67767;45.636;11.756;2023-08-20T08:24:13;33.20;61.50
73137;DHT22;67767;45.636;11.756;2023-08-20T08:26:39;33.00;64.10
73137;DHT22;67767;45.636;11.756;2023-08-20T08:29:06;32.90;64.00
73137;DHT22;67767;45.636;11.756;2023-08-20T08:31:32;32.80;64.60
73137;DHT22;67767;45.636;11.756;2023-08-20T08:33:58;32.50;64.20
73137;DHT22;67767;45.636;11.756;2023-08-20T08:36:24;32.60;64.50
73137;DHT22;67767;45.636;11.756;2023-08-20T08:38:54;32.70;64.70
73137;DHT22;67767;45.636;11.756;2023-08-20T08:41:22;32.90;64.70
73137;DHT22;67767;45.636;11.756;2023-08-20T08:43:49;32.80;64.90
73137;DHT22;67767;45.636;11.756;2023-08-20T08:46:15;32.30;67.10
73137;DHT22;67767;45.636;11.756;2023-08-20T08:48:43;32.90;64.80
73137;DHT22;67767;45.636;11.756;2023-08-20T08:51:09;33.10;62.40
73137;DHT22;67767;45.636;11.756;2023-08-20T08:53:35;33.40;62.50
73137;DHT22;67767;45.636;11.756;2023-08-20T08:56:02;33.50;62.40
73137;DHT22;67767;45.636;11.756;2023-08-20T08:58:32;32.80;64.00
73137;DHT22;67767;45.636;11.756;2023-08-20T09:00:58;33.00;64.30
73137;DHT22;67767;45.636;11.756;2023-08-20T09:03:24;33.20;64.40
73137;DHT22;67767;45.636;11.756;2023-08-20T09:06:09;33.10;64.50
73137;DHT22;67767;45.636;11.756;2023-08-20T09:08:35;32.80;64.90
73137;DHT22;67767;45.636;11.756;2023-08-20T09:11:01;32.50;66.30
73137;DHT22;67767;45.636;11.756;2023-08-20T09:15:59;32.80;64.80
73137;DHT22;67767;45.636;11.756;2023-08-20T09:18:29;33.00;60.70
73137;DHT22;67767;45.636;11.756;2023-08-20T09:20:54;33.40;61.10
73137;DHT22;67767;45.636;11.756;2023-08-20T09:23:20;33.80;61.80
73137;DHT22;67767;45.636;11.756;2023-08-20T09:25:46;33.50;61.70
73137;DHT22;67767;45.636;11.756;2023-08-20T09:28:11;33.70;60.80
73137;DHT22;67767;45.636;11.756;2023-08-20T09:30:37;33.30;62.50
73137;DHT22;67767;45.636;11.756;2023-08-20T09:33:09;33.40;63.40
73137;DHT22;67767;45.636;11.756;2023-08-20T09:35:35;33.70;59.60
73137;DHT22;67767;45.636;11.756;2023-08-20T09:38:03;34.00;59.00
73137;DHT22;67767;45.636;11.756;2023-08-20T09:40:29;33.90;57.20
73137;DHT22;67767;45.636;11.756;2023-08-20T09:42:56;33.40;59.40
73137;DHT22;67767;45.636;11.756;2023-08-20T09:45:26;33.30;61.40
73137;DHT22;67767;45.636;11.756;2023-08-20T09:47:55;33.60;60.20
73137;DHT22;67767;45.636;11.756;2023-08-20T09:50:25;33.50;62.90
73137;DHT22;67767;45.636;11.756;2023-08-20T09:53:09;33.20;62.10
73137;DHT22;67767;45.636;11.756;2023-08-20T09:55:39;33.70;60.40
73137;DHT22;67767;45.636;11.756;2023-08-20T09:58:07;33.70;60.30
73137;DHT22;67767;45.636;11.756;2023-08-20T10:00:33;33.70;56.70
73137;DHT22;67767;45.636;11.756;2023-08-20T10:02:59;33.80;57.70
73137;DHT22;67767;45.636;11.756;2023-08-20T10:05:25;34.20;55.50
73137;DHT22;67767;45.636;11.756;2023-08-20T10:07:55;34.40;55.00
73137;DHT22;67767;45.636;11.756;2023-08-20T10:10:21;34.10;54.50
73137;DHT22;67767;45.636;11.756;2023-08-20T10:12:47;34.00;55.50
73137;DHT22;67767;45.636;11.756;2023-08-20T10:15:14;34.00;54.90
73137;DHT22;67767;45.636;11.756;2023-08-20T10:17:42;33.80;56.40
73137;DHT22;67767;45.636;11.756;2023-08-20T10:20:10;34.30;55.10
73137;DHT22;67767;45.636;11.756;2023-08-20T10:22:43;34.30;56.60
73137;DHT22;67767;45.636;11.756;2023-08-20T10:25:21;34.70;54.70
73137;DHT22;67767;45.636;11.756;2023-08-20T10:27:47;34.90;53.50
73137;DHT22;67767;45.636;11.756;2023-08-20T10:30:18;34.40;55.90
73137;DHT22;67767;45.636;11.756;2023-08-20T10:32:49;34.20;55.10
73137;DHT22;67767;45.636;11.756;2023-08-20T10:35:25;34.30;55.10
73137;DHT22;67767;45.636;11.756;2023-08-20T10:38:17;34.40;55.50
73137;DHT22;67767;45.636;11.756;2023-08-20T10:40:51;34.40;54.20
73137;DHT22;67767;45.636;11.756;2023-08-20T10:46:28;34.80;52.20
73137;DHT22;67767;45.636;11.756;2023-08-20T10:48:58;34.50;53.30
73137;DHT22;67767;45.636;11.756;2023-08-20T10:51:26;34.70;52.90
73137;DHT22;67767;45.636;11.756;2023-08-20T10:59:25;34.90;50.30
73137;DHT22;67767;45.636;11.756;2023-08-20T11:01:53;35.20;51.80
73137;DHT22;67767;45.636;11.756;2023-08-20T11:04:20;35.10;52.80
73137;DHT22;67767;45.636;11.756;2023-08-20T11:06:49;35.30;52.40
73137;DHT22;67767;45.636;11.756;2023-08-20T11:09:15;35.70;52.10
73137;DHT22;67767;45.636;11.756;2023-08-20T11:11:41;35.40;52.80
73137;DHT22;67767;45.636;11.756;2023-08-20T11:14:14;35.60;52.30
73137;DHT22;67767;45.636;11.756;2023-08-20T11:16:41;35.70;52.40
73137;DHT22;67767;45.636;11.756;2023-08-20T11:19:07;36.10;52.20
73137;DHT22;67767;45.636;11.756;2023-08-20T11:21:37;36.20;51.50
73137;DHT22;67767;45.636;11.756;2023-08-20T11:24:04;36.20;50.40
73137;DHT22;67767;45.636;11.756;2023-08-20T11:26:30;35.90;49.50
73137;DHT22;67767;45.636;11.756;2023-08-20T11:28:56;35.40;49.90
73137;DHT22;67767;45.636;11.756;2023-08-20T11:31:22;35.70;49.50
73137;DHT22;67767;45.636;11.756;2023-08-20T11:33:49;36.10;48.80
73137;DHT22;67767;45.636;11.756;2023-08-20T11:36:20;36.30;49.60
73137;DHT22;67767;45.636;11.756;2023-08-20T11:38:52;36.20;48.60
73137;DHT22;67767;45.636;11.756;2023-08-20T11:41:22;36.40;48.30
73137;DHT22;67767;45.636;11.756;2023-08-20T11:43:49;36.60;47.60
73137;DHT22;67767;45.636;11.756;2023-08-20T11:46:17;36.20;48.30
73137;DHT22;67767;45.636;11.756;2023-08-20T11:49:02;36.90;48.00
73137;DHT22;67767;45.636;11.756;2023-08-20T11:51:29;36.90;47.90
73137;DHT22;67767;45.636;11.756;2023-08-20T11:53:56;37.70;45.30
73137;DHT22;67767;45.636;11.756;2023-08-20T11:56:22;37.50;45.50
73137;DHT22;67767;45.636;11.756;2023-08-20T11:58:51;37.80;44.80
73137;DHT22;67767;45.636;11.756;2023-08-20T12:01:20;38.20;44.30
73137;DHT22;67767;45.636;11.756;2023-08-20T12:03:45;37.80;44.90
73137;DHT22;67767;45.636;11.756;2023-08-20T12:06:21;38.70;43.90
73137;DHT22;67767;45.636;11.756;2023-08-20T12:08:50;39.00;42.50
73137;DHT22;67767;45.636;11.756;2023-08-20T12:11:15;39.60;41.60
73137;DHT22;67767;45.636;11.756;2023-08-20T12:13:41;38.60;43.50
73137;DHT22;67767;45.636;11.756;2023-08-20T12:16:07;39.20;42.80
73137;DHT22;67767;45.636;11.756;2023-08-20T12:18:32;38.90;43.00
73137;DHT22;67767;45.636;11.756;2023-08-20T12:20:58;39.00;42.90
73137;DHT22;67767;45.636;11.756;2023-08-20T12:23:24;39.60;42.60
73137;DHT22;67767;45.636;11.756;2023-08-20T12:25:51;39.30;43.30
73137;DHT22;67767;45.636;11.756;2023-08-20T12:28:16;40.30;41.40
73137;DHT22;67767;45.636;11.756;2023-08-20T12:30:43;38.80;43.10
73137;DHT22;67767;45.636;11.756;2023-08-20T12:33:09;39.30;43.10
73137;DHT22;67767;45.636;11.756;2023-08-20T12:35:36;39.90;42.00
73137;DHT22;67767;45.636;11.756;2023-08-20T12:38:03;39.60;42.40
73137;DHT22;67767;45.636;11.756;2023-08-20T12:40:29;40.20;41.10
73137;DHT22;67767;45.636;11.756;2023-08-20T12:42:55;39.60;42.50
73137;DHT22;67767;45.636;11.756;2023-08-20T12:45:20;39.80;42.10
73137;DHT22;67767;45.636;11.756;2023-08-20T12:47:46;39.80;41.70
73137;DHT22;67767;45.636;11.756;2023-08-20T12:50:12;39.50;42.10
73137;DHT22;67767;45.636;11.756;2023-08-20T12:52:40;40.30;40.10
73137;DHT22;67767;45.636;11.756;2023-08-20T12:55:06;41.00;39.00
73137;DHT22;67767;45.636;11.756;2023-08-20T12:57:34;41.80;38.20
73137;DHT22;67767;45.636;11.756;2023-08-20T13:00:00;41.30;39.10
73137;DHT22;67767;45.636;11.756;2023-08-20T13:02:26;40.90;39.10
73137;DHT22;67767;45.636;11.756;2023-08-20T13:04:52;41.30;38.40
73137;DHT22;67767;45.636;11.756;2023-08-20T13:07:18;40.00;40.70
73137;DHT22;67767;45.636;11.756;2023-08-20T13:09:44;40.70;39.10
73137;DHT22;67767;45.636;11.756;2023-08-20T13:12:10;41.40;37.80
73137;DHT22;67767;45.636;11.756;2023-08-20T13:14:39;41.00;38.80
73137;DHT22;67767;45.636;11.756;2023-08-20T13:17:06;41.60;37.30
73137;DHT22;67767;45.636;11.756;2023-08-20T13:19:32;42.20;37.50
73137;DHT22;67767;45.636;11.756;2023-08-20T13:21:57;41.50;37.70
73137;DHT22;67767;45.636;11.756;2023-08-20T13:24:23;42.20;37.80
73137;DHT22;67767;45.636;11.756;2023-08-20T13:26:50;41.40;36.70
73137;DHT22;67767;45.636;11.756;2023-08-20T13:29:16;40.80;39.00
73137;DHT22;67767;45.636;11.756;2023-08-20T13:31:42;41.80;37.90
73137;DHT22;67767;45.636;11.756;2023-08-20T13:34:09;42.30;35.00
73137;DHT22;67767;45.636;11.756;2023-08-20T13:36:34;0.20;0.20
73137;DHT22;67767;45.636;11.756;2023-08-20T13:39:00;0.20;0.20
73137;DHT22;67767;45.636;11.756;2023-08-20T13:41:26;0.20;0.20
73137;DHT22;67767;45.636;11.756;2023-08-20T13:43:52;0.20;0.20
73137;DHT22;67767;45.636;11.756;2023-08-20T13:46:19;41.20;36.70
73137;DHT22;67767;45.636;11.756;2023-08-20T13:48:44;0.20;0.20
73137;DHT22;67767;45.636;11.756;2023-08-20T13:51:10;0.20;0.20
73137;DHT22;67767;45.636;11.756;2023-08-20T13:53:35;0.20;0.20
73137;DHT22;67767;45.636;11.756;2023-08-20T13:56:02;0.20;0.20
73137;DHT22;67767;45.636;11.756;2023-08-20T13:58:27;0.20;0.20
73137;DHT22;67767;45.636;11.756;2023-08-20T14:00:53;0.20;0.20
73137;DHT22;67767;45.636;11.756;2023-08-20T14:03:19;0.20;0.20
73137;DHT22;67767;45.636;11.756;2023-08-20T14:05:44;0.20;0.20
73137;DHT22;67767;45.636;11.756;2023-08-20T14:08:11;0.20;0.20
73137;DHT22;67767;45.636;11.756;2023-08-20T14:10:37;0.20;0.20
73137;DHT22;67767;45.636;11.756;2023-08-20T14:13:02;0.20;0.20
73137;DHT22;67767;45.636;11.756;2023-08-20T14:15:28;0.20;0.20
73137;DHT22;67767;45.636;11.756;2023-08-20T14:17:54;0.20;0.20
73137;DHT22;67767;45.636;11.756;2023-08-20T14:20:20;0.20;0.20
73137;DHT22;67767;45.636;11.756;2023-08-20T14:22:45;0.20;0.20
73137;DHT22;67767;45.636;11.756;2023-08-20T14:25:11;0.20;0.20
73137;DHT22;67767;45.636;11.756;2023-08-20T14:27:37;0.20;0.20
73137;DHT22;67767;45.636;11.756;2023-08-20T14:30:03;0.20;0.20
73137;DHT22;67767;45.636;11.756;2023-08-20T14:32:30;0.20;0.20
73137;DHT22;67767;45.636;11.756;2023-08-20T14:34:55;0.20;0.20
73137;DHT22;67767;45.636;11.756;2023-08-20T14:37:21;0.20;0.20
73137;DHT22;67767;45.636;11.756;2023-08-20T14:39:49;0.20;0.20
73137;DHT22;67767;45.636;11.756;2023-08-20T14:42:15;0.20;0.20
73137;DHT22;67767;45.636;11.756;2023-08-20T14:44:40;0.20;0.20
73137;DHT22;67767;45.636;11.756;2023-08-20T14:47:06;0.20;0.20
73137;DHT22;67767;45.636;11.756;2023-08-20T14:49:32;0.20;0.20
73137;DHT22;67767;45.636;11.756;2023-08-20T14:51:57;0.20;0.20
73137;DHT22;67767;45.636;11.756;2023-08-20T14:54:25;0.20;0.20
73137;DHT22;67767;45.636;11.756;2023-08-20T14:56:50;0.20;0.20
73137;DHT22;67767;45.636;11.756;2023-08-20T14:59:16;0.20;0.20
73137;DHT22;67767;45.636;11.756;2023-08-20T15:01:42;0.20;0.20
73137;DHT22;67767;45.636;11.756;2023-08-20T15:04:07;0.20;0.20
73137;DHT22;67767;45.636;11.756;2023-08-20T15:06:33;0.20;0.20
73137;DHT22;67767;45.636;11.756;2023-08-20T15:08:59;0.20;0.20
73137;DHT22;67767;45.636;11.756;2023-08-20T15:11:24;0.20;0.20
73137;DHT22;67767;45.636;11.756;2023-08-20T15:13:50;0.20;0.20
73137;DHT22;67767;45.636;11.756;2023-08-20T15:16:17;0.20;0.20
73137;DHT22;67767;45.636;11.756;2023-08-20T15:18:43;0.20;0.20
73137;DHT22;67767;45.636;11.756;2023-08-20T15:21:08;0.20;0.20
73137;DHT22;67767;45.636;11.756;2023-08-20T15:23:36;0.20;0.20
73137;DHT22;67767;45.636;11.756;2023-08-20T15:26:03;0.20;0.20
73137;DHT22;67767;45.636;11.756;2023-08-20T15:28:29;0.20;0.20
73137;DHT22;67767;45.636;11.756;2023-08-20T15:30:56;0.20;0.20
73137;DHT22;67767;45.636;11.756;2023-08-20T15:33:22;0.20;0.20
73137;DHT22;67767;45.636;11.756;2023-08-20T15:35:48;0.20;0.20